Time;durP1;ratioP1;P1;durP2;ratioP2;P2;SDS_P1;SDS_P2;PMS_P1;PMS_P2;Temp;Humidity;BMP_temperature;BMP_pressure;BME280_temperature;BME280_humidity;BME280_pressure;Samples;Min_cycle;Max_cycle;Signal;HPM_P1;HPM_P2
2022/10/25 00:14:20;;;;;;;9.60;2.83;;;;;;;12.99;100.00;101082.66;5706253;22;1217616;-69
2022/10/25 00:16:45;;;;;;;5.75;2.20;;;;;;;13.04;100.00;101084.72;5295665;22;20064;-65
2022/10/25 00:19:13;;;;;;;5.40;2.50;;;;;;;13.05;100.00;101078.34;5558387;22;20158;-70
2022/10/25 00:21:39;;;;;;;10.60;2.22;;;;;;;13.09;100.00;101084.91;6002785;22;20122;-67
2022/10/25 00:24:04;;;;;;;10.45;2.67;;;;;;;13.05;100.00;101081.03;5098020;22;20043;-65
2022/10/25 00:26:30;;;;;;;10.68;2.65;;;;;;;13.08;100.00;101085.97;5090256;28;20089;-65
2022/10/25 00:28:55;;;;;;;13.85;2.70;;;;;;;13.05;100.00;101086.38;5072039;28;20040;-65
2022/10/25 00:31:22;;;;;;;8.70;2.50;;;;;;;13.06;100.00;101096.88;5090093;28;20032;-65
2022/10/25 00:33:47;;;;;;;8.80;2.10;;;;;;;13.04;100.00;101090.06;5089642;28;20031;-65
2022/10/25 00:36:18;;;;;;;8.30;2.20;;;;;;;13.02;100.00;101094.81;5089665;28;20020;-65
2022/10/25 00:38:45;;;;;;;7.90;2.38;;;;;;;13.01;100.00;101093.97;5089810;28;20027;-65
2022/10/25 00:41:15;;;;;;;9.70;2.80;;;;;;;12.98;100.00;101099.75;5089802;28;20042;-65
2022/10/25 00:43:47;;;;;;;4.27;2.17;;;;;;;12.95;100.00;101100.16;5089262;28;20028;-65
2022/10/25 00:46:24;;;;;;;5.70;2.22;;;;;;;12.99;100.00;101108.59;5089592;28;20098;-65
2022/10/25 00:48:58;;;;;;;12.02;4.22;;;;;;;13.02;100.00;101105.50;5089181;28;20047;-65
2022/10/25 00:51:28;;;;;;;7.20;2.38;;;;;;;13.04;100.00;101108.81;5089179;28;20031;-65
2022/10/25 00:53:54;;;;;;;12.95;2.45;;;;;;;13.09;100.00;101112.50;5089899;28;20024;-65
2022/10/25 00:56:33;;;;;;;12.45;3.78;;;;;;;13.10;100.00;101105.31;5089692;28;20032;-65
2022/10/25 00:59:02;;;;;;;13.60;2.83;;;;;;;13.14;100.00;101106.53;5089258;28;20115;-65
2022/10/25 01:01:28;;;;;;;11.40;2.83;;;;;;;13.18;100.00;101106.94;5089667;28;20023;-65
2022/10/25 01:03:57;;;;;;;12.77;2.22;;;;;;;13.21;100.00;101115.41;5089789;28;20043;-65
2022/10/25 01:06:33;;;;;;;8.93;2.47;;;;;;;13.23;100.00;101115.19;5089461;28;20107;-65
2022/10/25 01:09:01;;;;;;;12.57;2.58;;;;;;;13.21;100.00;101117.25;5089370;28;20051;-65
2022/10/25 01:11:26;;;;;;;10.95;2.53;;;;;;;13.28;100.00;101115.41;5089677;28;20470;-65
2022/10/25 01:13:52;;;;;;;6.22;2.30;;;;;;;13.30;100.00;101113.34;5089411;28;20028;-65
2022/10/25 01:16:42;;;;;;;9.73;2.45;;;;;;;13.31;100.00;101107.81;5089351;28;20039;-65
2022/10/25 01:19:38;;;;;;;13.55;3.03;;;;;;;13.35;100.00;101114.38;5089384;28;20643;-65
2022/10/25 01:22:07;;;;;;;5.47;2.08;;;;;;;13.39;100.00;101122.84;5089244;28;20032;-65
2022/10/25 01:24:36;;;;;;;6.32;1.95;;;;;;;13.43;100.00;101120.56;5088844;28;20470;-65
2022/10/25 01:27:46;;;;;;;12.23;2.20;;;;;;;13.45;100.00;101124.66;5088537;28;20031;-65
2022/10/25 01:30:21;;;;;;;7.22;3.05;;;;;;;13.49;100.00;101119.72;5089017;28;20024;-65
2022/10/25 01:33:01;;;;;;;12.18;3.45;;;;;;;13.45;100.00;101111.28;5088832;28;20032;-65
2022/10/25 01:35:31;;;;;;;7.85;2.40;;;;;;;13.45;100.00;101124.66;5088952;28;20478;-65
2022/10/25 01:38:35;;;;;;;7.80;2.40;;;;;;;13.46;100.00;101120.13;5089013;28;20111;-65
2022/10/25 01:41:31;;;;;;;13.65;3.67;;;;;;;13.47;100.00;101133.34;5073380;28;20043;-66
2022/10/25 01:44:08;;;;;;;13.68;2.95;;;;;;;13.47;100.00;101130.66;5088900;28;20130;-65
2022/10/25 01:46:40;;;;;;;15.52;2.75;;;;;;;13.49;100.00;101127.75;5088934;28;20024;-65
2022/10/25 01:49:12;;;;;;;4.90;2.10;;;;;;;13.45;100.00;101121.16;5088394;28;20024;-65
2022/10/25 01:51:37;;;;;;;7.55;2.35;;;;;;;13.48;100.00;101132.28;5088606;28;20143;-65
2022/10/25 01:54:17;;;;;;;9.43;2.17;;;;;;;13.51;100.00;101137.22;5088854;28;20126;-65
2022/10/25 01:56:55;;;;;;;5.95;2.10;;;;;;;13.52;100.00;101135.41;5088760;28;20420;-65
2022/10/25 01:59:38;;;;;;;5.40;1.90;;;;;;;13.52;100.00;101138.88;5088535;28;20059;-65
2022/10/25 02:02:41;;;;;;;5.35;2.58;;;;;;;13.53;100.00;101124.44;5088261;28;20443;-65
2022/10/25 02:05:20;;;;;;;10.23;2.85;;;;;;;13.52;100.00;101124.66;5087201;28;20040;-65
2022/10/25 02:08:17;;;;;;;6.07;2.22;;;;;;;13.51;100.00;101129.19;5088516;28;20103;-65
2022/10/25 02:11:24;;;;;;;9.15;2.08;;;;;;;13.52;100.00;101135.41;5077598;28;20394;-65
2022/10/25 02:13:52;;;;;;;9.70;2.90;;;;;;;13.49;100.00;101136.63;4986681;28;20048;-65
2022/10/25 02:16:34;;;;;;;9.23;3.00;;;;;;;13.48;100.00;101142.19;5055053;28;20401;-65
2022/10/25 02:19:06;;;;;;;9.18;2.30;;;;;;;13.48;100.00;101143.00;5070444;28;20091;-71
2022/10/25 02:21:33;;;;;;;6.40;1.83;;;;;;;13.46;100.00;101139.69;5088404;28;20040;-70
2022/10/25 02:24:04;;;;;;;10.55;2.92;;;;;;;13.47;100.00;101148.59;5088385;28;20116;-70
2022/10/25 02:26:30;;;;;;;8.07;2.25;;;;;;;13.48;100.00;101147.53;5088456;28;20024;-70
2022/10/25 02:28:56;;;;;;;2.80;1.70;;;;;;;13.39;100.00;101138.91;5088372;28;20032;-70
2022/10/25 02:31:23;;;;;;;6.68;2.30;;;;;;;13.42;100.00;101149.22;5090326;28;20039;-70
2022/10/25 02:33:49;;;;;;;6.70;1.33;;;;;;;13.39;100.00;101146.94;5092064;28;20032;-70
2022/10/25 02:36:18;;;;;;;7.93;2.90;;;;;;;13.34;100.00;101152.91;5092073;28;20034;-70
2022/10/25 02:38:44;;;;;;;8.27;2.30;;;;;;;13.29;100.00;101151.91;5092093;28;20054;-70
2022/10/25 02:41:10;;;;;;;6.93;2.50;;;;;;;13.23;100.00;101156.19;5092088;28;20063;-70
2022/10/25 02:43:36;;;;;;;8.43;1.50;;;;;;;13.28;100.00;101158.28;5092028;28;20024;-70
2022/10/25 02:46:06;;;;;;;6.65;2.40;;;;;;;13.22;100.00;101151.84;5072304;28;20025;-70
2022/10/25 02:48:32;;;;;;;8.20;1.73;;;;;;;13.27;100.00;101156.63;5072331;28;20040;-70
2022/10/25 02:50:57;;;;;;;9.20;3.05;;;;;;;13.26;100.00;101160.31;5054209;28;20040;-70
2022/10/25 02:53:22;;;;;;;11.55;2.30;;;;;;;13.26;100.00;101165.69;5071836;28;20035;-70
2022/10/25 02:55:48;;;;;;;5.38;1.75;;;;;;;13.25;100.00;101162.16;5072408;28;20115;-70
2022/10/25 02:58:13;;;;;;;6.13;2.47;;;;;;;13.17;100.00;101154.34;5072292;28;20028;-70
2022/10/25 03:00:38;;;;;;;3.75;1.65;;;;;;;13.05;100.00;101143.44;5072212;28;20112;-70
2022/10/25 03:03:04;;;;;;;9.95;2.80;;;;;;;13.10;100.00;101165.06;5071875;28;20033;-70
2022/10/25 03:05:29;;;;;;;7.05;1.73;;;;;;;13.05;100.00;101172.88;5072486;28;20033;-70
2022/10/25 03:07:54;;;;;;;8.23;2.33;;;;;;;13.00;100.00;101170.00;5071458;28;20063;-70
2022/10/25 03:10:20;;;;;;;5.80;2.33;;;;;;;12.97;100.00;101177.59;5072039;28;20064;-70
2022/10/25 03:12:45;;;;;;;12.45;2.38;;;;;;;12.90;100.00;101169.56;5072055;28;20059;-70
2022/10/25 03:15:10;;;;;;;10.98;2.50;;;;;;;12.79;100.00;101148.75;5071965;28;20020;-70
2022/10/25 03:17:36;;;;;;;7.97;2.45;;;;;;;12.87;100.00;101175.34;5071955;28;20033;-70
2022/10/25 03:20:01;;;;;;;4.93;2.45;;;;;;;12.81;100.00;101171.63;5071935;28;20024;-70
2022/10/25 03:22:27;;;;;;;7.47;2.30;;;;;;;12.80;100.00;101172.63;5071485;28;20095;-70
2022/10/25 03:24:52;;;;;;;6.75;2.08;;;;;;;12.78;100.00;101179.22;5071828;28;20028;-70
2022/10/25 03:27:17;;;;;;;10.48;2.55;;;;;;;12.75;100.00;101184.97;5071694;28;20041;-70
2022/10/25 03:29:43;;;;;;;6.95;2.15;;;;;;;12.74;100.00;101192.19;5071744;28;20097;-70
2022/10/25 03:32:08;;;;;;;10.13;3.65;;;;;;;12.70;100.00;101193.59;5071645;28;20119;-70
2022/10/25 03:34:33;;;;;;;6.72;3.08;;;;;;;12.66;100.00;101200.41;5071619;28;20111;-70
2022/10/25 03:36:59;;;;;;;7.97;2.45;;;;;;;12.67;100.00;101199.38;5071607;28;20039;-70
2022/10/25 03:39:24;;;;;;;5.72;2.08;;;;;;;12.62;100.00;101205.31;5071549;28;20082;-70
2022/10/25 03:41:49;;;;;;;6.95;2.60;;;;;;;12.59;100.00;101205.72;5070578;28;20028;-70
2022/10/25 03:44:15;;;;;;;6.95;2.30;;;;;;;12.56;100.00;101211.47;5071159;28;20040;-70
2022/10/25 03:46:40;;;;;;;5.03;1.83;;;;;;;12.55;100.00;101215.19;5071111;28;20043;-70
2022/10/25 03:49:06;;;;;;;7.05;2.25;;;;;;;12.54;100.00;101216.19;5071287;28;20045;-70
2022/10/25 03:51:31;;;;;;;5.45;1.73;;;;;;;12.51;100.00;101221.97;5071219;28;20036;-70
2022/10/25 03:53:56;;;;;;;5.10;1.90;;;;;;;12.48;100.00;101219.69;5052934;28;20047;-70
2022/10/25 03:56:22;;;;;;;6.60;3.20;;;;;;;12.45;100.00;101220.91;5070660;28;20475;-70
2022/10/25 03:58:47;;;;;;;7.28;2.45;;;;;;;12.46;100.00;101219.06;5071140;28;20386;-70
2022/10/25 04:01:13;;;;;;;3.80;1.63;;;;;;;12.44;100.00;101223.78;5071121;28;20020;-70
2022/10/25 04:03:38;;;;;;;6.25;2.05;;;;;;;12.42;100.00;101223.19;5070843;28;20039;-70
2022/10/25 04:06:04;;;;;;;11.52;2.70;;;;;;;12.39;100.00;101229.75;5070856;28;20025;-70
2022/10/25 04:08:29;;;;;;;8.32;3.15;;;;;;;12.38;100.00;101230.75;5070694;28;20032;-70
2022/10/25 04:10:54;;;;;;;6.45;2.20;;;;;;;12.36;100.00;101231.97;5070830;28;20042;-70
2022/10/25 04:13:20;;;;;;;7.53;2.28;;;;;;;12.28;100.00;101231.13;5071021;28;20039;-70
2022/10/25 04:15:45;;;;;;;9.80;3.45;;;;;;;12.33;100.00;101238.56;5070890;28;20093;-70
2022/10/25 04:18:10;;;;;;;3.10;1.70;;;;;;;12.34;100.00;101231.34;5070786;28;20024;-65
2022/10/25 04:20:36;;;;;;;5.45;2.33;;;;;;;12.36;100.00;101231.97;5070785;28;20123;-64
2022/10/25 04:23:01;;;;;;;7.60;2.20;;;;;;;12.35;100.00;101230.34;5070347;28;20056;-65
2022/10/25 04:25:27;;;;;;;8.38;3.15;;;;;;;12.31;100.00;101229.88;5070472;28;20103;-65
2022/10/25 04:27:53;;;;;;;8.40;2.92;;;;;;;12.28;100.00;101236.47;5070629;28;20033;-65
2022/10/25 04:30:19;;;;;;;6.07;2.78;;;;;;;12.28;100.00;101243.66;5070575;28;20078;-65
2022/10/25 04:32:44;;;;;;;6.10;2.17;;;;;;;12.24;100.00;101240.56;5070397;28;20036;-65
2022/10/25 04:35:10;;;;;;;3.13;2.03;;;;;;;12.24;100.00;101245.09;5070441;28;20032;-64
2022/10/25 04:37:35;;;;;;;4.60;2.53;;;;;;;12.23;100.00;101244.25;5070424;28;20063;-65
2022/10/25 04:40:01;;;;;;;6.55;2.85;;;;;;;12.20;100.00;101247.31;5070209;28;20060;-65
2022/10/25 04:42:26;;;;;;;7.22;3.15;;;;;;;12.20;100.00;101238.50;5070291;28;20024;-65
2022/10/25 04:44:51;;;;;;;11.52;3.67;;;;;;;12.18;100.00;101246.72;5070163;28;20386;-70
2022/10/25 04:47:17;;;;;;;4.15;2.67;;;;;;;12.17;100.00;101244.22;5070058;28;20032;-70
2022/10/25 04:49:42;;;;;;;5.30;2.35;;;;;;;12.16;100.00;101258.63;5070120;28;20033;-70
2022/10/25 04:52:07;;;;;;;12.43;2.53;;;;;;;12.15;100.00;101255.13;5069832;28;20032;-70
2022/10/25 04:54:32;;;;;;;5.10;2.30;;;;;;;12.14;100.00;101256.16;5069292;28;20032;-70
2022/10/25 04:56:58;;;;;;;8.23;3.17;;;;;;;12.13;100.00;101250.97;5069757;28;20486;-70
2022/10/25 04:59:23;;;;;;;6.18;2.33;;;;;;;12.11;100.00;101253.88;5070078;28;20396;-70
2022/10/25 05:01:49;;;;;;;5.50;2.50;;;;;;;12.11;100.00;101253.06;5069963;28;20033;-70
2022/10/25 05:04:14;;;;;;;7.70;3.72;;;;;;;12.04;100.00;101250.31;5069553;28;20046;-70
2022/10/25 05:06:39;;;;;;;6.78;2.95;;;;;;;12.09;100.00;101260.44;5069623;28;20059;-70
2022/10/25 05:09:05;;;;;;;8.85;3.42;;;;;;;12.09;100.00;101257.75;5069770;28;20036;-70
2022/10/25 05:11:31;;;;;;;9.73;2.20;;;;;;;12.04;100.00;101253.81;5069901;28;20033;-70
2022/10/25 05:13:56;;;;;;;8.13;2.63;;;;;;;12.03;100.00;101262.88;5069734;28;20394;-70
2022/10/25 05:16:23;;;;;;;7.03;2.60;;;;;;;11.98;100.00;101245.78;5069759;28;20028;-70
2022/10/25 05:18:54;;;;;;;8.40;2.95;;;;;;;11.96;100.00;101262.00;5069897;28;20063;-70
2022/10/25 05:21:21;;;;;;;6.90;2.10;;;;;;;11.97;100.00;101266.34;5069773;28;20035;-69
2022/10/25 05:23:46;;;;;;;11.25;3.35;;;;;;;11.93;100.00;101270.41;5069482;28;20095;-70
2022/10/25 05:26:15;;;;;;;7.80;2.50;;;;;;;11.96;100.00;101277.22;5051731;28;20064;-70
2022/10/25 05:28:42;;;;;;;9.07;3.15;;;;;;;11.95;100.00;101280.91;5069930;28;20383;-70
2022/10/25 05:31:13;;;;;;;5.45;2.38;;;;;;;11.94;100.00;101287.28;5071203;28;20032;-70
2022/10/25 05:33:38;;;;;;;8.63;3.10;;;;;;;11.92;100.00;101278.63;5069825;28;20112;-70
2022/10/25 05:36:04;;;;;;;8.02;3.00;;;;;;;11.93;100.00;101283.78;5069792;28;20119;-70
2022/10/25 05:38:30;;;;;;;9.93;3.33;;;;;;;11.93;100.00;101285.63;5069609;28;20035;-70
2022/10/25 05:40:58;;;;;;;8.98;4.40;;;;;;;11.85;100.00;101282.03;5069687;28;20866;-70
2022/10/25 05:43:23;;;;;;;7.13;2.85;;;;;;;11.91;100.00;101295.69;5069398;28;20032;-70
2022/10/25 05:45:49;;;;;;;16.33;4.45;;;;;;;11.91;100.00;101293.84;5088773;28;20039;-65
2022/10/25 05:48:15;;;;;;;6.38;2.78;;;;;;;11.89;100.00;101301.22;5088728;28;20032;-65
2022/10/25 05:50:40;;;;;;;10.40;2.80;;;;;;;11.84;100.00;101293.75;5088919;28;20032;-65
2022/10/25 05:53:06;;;;;;;6.90;2.83;;;;;;;11.85;100.00;101308.78;5088567;28;20039;-65
2022/10/25 05:55:35;;;;;;;6.25;2.92;;;;;;;11.84;100.00;101315.16;5088701;28;20120;-64
2022/10/25 05:58:01;;;;;;;8.18;3.67;;;;;;;11.84;100.00;101315.16;5088599;28;20032;-65
2022/10/25 06:00:27;;;;;;;12.55;2.83;;;;;;;11.84;100.00;101308.94;5088559;28;20035;-65
2022/10/25 06:02:52;;;;;;;6.43;2.58;;;;;;;11.84;100.00;101311.63;5088752;28;20386;-65
2022/10/25 06:05:17;;;;;;;7.53;2.30;;;;;;;11.84;100.00;101319.63;5089135;28;20068;-65
2022/10/25 06:07:43;;;;;;;7.85;3.35;;;;;;;11.82;100.00;101319.03;5092067;28;20032;-65
2022/10/25 06:10:08;;;;;;;7.72;2.40;;;;;;;11.81;100.00;101326.19;5092423;28;20093;-64
2022/10/25 06:12:34;;;;;;;11.45;2.50;;;;;;;11.83;100.00;101324.16;5092687;28;20032;-65
2022/10/25 06:14:59;;;;;;;9.40;2.50;;;;;;;11.87;100.00;101326.47;5092559;28;20833;-65
2022/10/25 06:17:24;;;;;;;5.68;2.97;;;;;;;11.93;100.00;101334.56;5092404;28;20059;-65
2022/10/25 06:19:50;;;;;;;8.52;2.97;;;;;;;11.96;100.00;101336.03;5074243;28;20039;-65
2022/10/25 06:22:15;;;;;;;5.75;2.13;;;;;;;11.93;100.00;101339.91;5092154;28;20062;-65
2022/10/25 06:24:40;;;;;;;8.45;2.80;;;;;;;11.96;100.00;101341.38;5092255;28;20067;-65
2022/10/25 06:27:06;;;;;;;7.15;3.08;;;;;;;11.98;100.00;101344.69;5092027;28;20028;-65
2022/10/25 06:29:31;;;;;;;7.18;3.00;;;;;;;11.98;100.00;101350.03;5092135;28;20058;-65
2022/10/25 06:31:56;;;;;;;7.43;4.00;;;;;;;11.92;100.00;101343.63;5092054;28;20084;-66
2022/10/25 06:34:22;;;;;;;5.57;3.53;;;;;;;11.94;100.00;101352.25;5092142;28;20081;-66
2022/10/25 06:36:47;;;;;;;5.40;2.45;;;;;;;11.92;100.00;101358.81;5091230;28;20078;-66
2022/10/25 06:39:12;;;;;;;11.45;4.63;;;;;;;11.91;100.00;101359.84;5073698;28;20036;-66
2022/10/25 06:41:39;;;;;;;10.70;4.38;;;;;;;11.92;100.00;101365.00;5091962;28;20047;-65
2022/10/25 06:44:05;;;;;;;12.63;4.53;;;;;;;11.85;100.00;101356.88;5091653;28;20032;-64
2022/10/25 06:46:32;;;;;;;5.88;3.60;;;;;;;11.92;100.00;101364.16;5091599;28;20024;-65
2022/10/25 06:48:59;;;;;;;8.15;4.00;;;;;;;11.92;100.00;101367.66;5091771;28;20057;-65
2022/10/25 06:51:26;;;;;;;11.35;4.40;;;;;;;11.92;100.00;101370.34;5091395;28;20115;-65
2022/10/25 06:54:07;;;;;;;9.48;4.32;;;;;;;11.90;100.00;101367.03;5091598;28;20842;-65
2022/10/25 06:56:32;;;;;;;7.10;3.95;;;;;;;11.99;100.00;101378.41;5091722;28;20032;-65
2022/10/25 06:58:58;;;;;;;13.90;4.30;;;;;;;12.03;100.00;101383.19;5073213;28;20032;-65
2022/10/25 07:01:24;;;;;;;10.18;4.88;;;;;;;12.06;100.00;101382.78;5091421;28;20036;-65
2022/10/25 07:03:52;;;;;;;10.38;3.97;;;;;;;12.11;100.00;101382.22;5091384;28;20146;-65
2022/10/25 07:06:26;;;;;;;11.68;4.82;;;;;;;12.14;100.00;101381.81;5091512;28;20067;-65
2022/10/25 07:08:57;;;;;;;13.38;5.05;;;;;;;12.16;100.00;101379.78;5091057;28;20482;-65
2022/10/25 07:11:24;;;;;;;9.30;4.55;;;;;;;12.16;100.00;101373.63;5071548;28;20028;-65
2022/10/25 07:13:50;;;;;;;9.00;3.90;;;;;;;12.17;100.00;101386.78;5071944;28;20029;-65
2022/10/25 07:16:18;;;;;;;10.88;4.30;;;;;;;12.19;100.00;101397.28;5071453;28;20070;-65
2022/10/25 07:18:44;;;;;;;12.10;5.75;;;;;;;12.21;100.00;101401.44;5071831;28;20538;-65
2022/10/25 07:21:10;;;;;;;11.65;4.10;;;;;;;12.25;100.00;101405.34;5071734;28;20115;-66
2022/10/25 07:23:41;;;;;;;12.60;4.90;;;;;;;12.28;100.00;101410.31;5088508;28;20101;-65
2022/10/25 07:26:21;;;;;;;11.32;4.15;;;;;;;12.31;100.00;101410.94;5073702;28;20036;-65
2022/10/25 07:28:48;;;;;;;13.95;4.47;;;;;;;12.30;100.00;101417.31;5091233;28;20111;-65
2022/10/25 07:31:16;;;;;;;16.02;5.00;;;;;;;12.33;100.00;101419.59;5090938;28;20040;-66
2022/10/25 07:33:42;;;;;;;10.55;5.30;;;;;;;12.38;100.00;101431.38;5090898;28;20031;-65
2022/10/25 07:36:07;;;;;;;12.45;4.22;;;;;;;12.45;100.00;101426.09;5090170;28;20356;-66
2022/10/25 07:38:33;;;;;;;14.85;5.35;;;;;;;12.47;100.00;101422.19;5059238;28;20024;-65
2022/10/25 07:40:58;;;;;;;12.48;5.85;;;;;;;12.51;100.00;101430.66;5078751;28;20020;-65
2022/10/25 07:43:25;;;;;;;13.18;4.82;;;;;;;12.55;100.00;101426.56;5078190;28;20020;-66
2022/10/25 07:45:51;;;;;;;12.45;4.57;;;;;;;12.63;100.00;101425.59;5078554;28;20039;-65
2022/10/25 07:48:16;;;;;;;9.68;4.88;;;;;;;12.70;100.00;101421.09;5077676;28;20388;-65
2022/10/25 07:50:42;;;;;;;12.95;5.57;;;;;;;12.81;100.00;101425.06;5078626;28;20028;-65
2022/10/25 07:53:07;;;;;;;13.27;5.32;;;;;;;12.86;100.00;101420.81;5078907;28;20032;-65
2022/10/25 07:55:33;;;;;;;13.52;5.25;;;;;;;13.01;100.00;101438.56;5078004;28;20024;-66
2022/10/25 07:58:03;;;;;;;13.23;4.38;;;;;;;13.04;100.00;101438.16;5078054;28;20020;-66
2022/10/25 08:00:29;;;;;;;11.18;4.38;;;;;;;13.08;100.00;101439.44;5087671;28;20032;-65
2022/10/25 08:02:55;;;;;;;12.13;4.97;;;;;;;13.11;100.00;101436.34;5090217;28;20031;-65
2022/10/25 08:05:20;;;;;;;14.63;4.20;;;;;;;13.13;100.00;101437.81;5090193;28;20028;-65
2022/10/25 08:07:46;;;;;;;12.77;5.10;;;;;;;13.15;100.00;101441.13;5090420;28;20020;-65
2022/10/25 08:10:11;;;;;;;10.93;5.65;;;;;;;13.20;100.00;101440.50;5090163;28;20107;-65
2022/10/25 08:12:36;;;;;;;10.07;4.05;;;;;;;13.26;100.00;101442.44;5089564;28;20950;-65
2022/10/25 08:15:02;;;;;;;13.10;5.38;;;;;;;13.29;100.00;101452.75;5090025;28;20501;-65
2022/10/25 08:17:27;;;;;;;12.05;6.05;;;;;;;13.30;100.00;101450.88;5089977;28;20048;-65
2022/10/25 08:19:53;;;;;;;10.48;4.35;;;;;;;13.31;100.00;101456.06;5071583;28;20058;-65
2022/10/25 08:22:18;;;;;;;14.13;7.70;;;;;;;13.34;100.00;101457.53;5089734;28;20609;-65
2022/10/25 08:24:43;;;;;;;11.13;4.28;;;;;;;13.39;100.00;101457.75;5089929;28;20035;-64
2022/10/25 08:27:09;;;;;;;8.85;4.25;;;;;;;13.43;100.00;101445.59;5089719;28;20088;-65
2022/10/25 08:29:34;;;;;;;10.02;4.82;;;;;;;13.48;100.00;101451.16;5089183;28;20024;-64
2022/10/25 08:32:00;;;;;;;8.90;4.63;;;;;;;13.51;100.00;101450.75;5089689;28;20031;-65
2022/10/25 08:34:25;;;;;;;15.80;6.57;;;;;;;13.56;100.00;101459.03;5071834;28;20016;-65
2022/10/25 08:36:50;;;;;;;11.82;4.85;;;;;;;13.56;100.00;101458.19;5070211;28;20024;-65
2022/10/25 08:39:16;;;;;;;9.80;4.53;;;;;;;13.53;100.00;101458.59;5070245;28;20469;-65
2022/10/25 08:41:44;;;;;;;12.32;4.93;;;;;;;13.56;100.00;101455.53;5070304;28;20048;-64
2022/10/25 08:44:22;;;;;;;11.25;4.57;;;;;;;13.58;100.00;101465.00;5070304;28;20027;-65
2022/10/25 08:47:10;;;;;;;9.38;3.85;;;;;;;13.62;100.00;101459.25;5070225;28;20024;-65
2022/10/25 08:49:43;;;;;;;13.57;5.18;;;;;;;13.65;100.00;101462.38;5070171;28;20054;-65
2022/10/25 08:52:20;;;;;;;7.95;3.92;;;;;;;13.71;100.00;101464.22;5070170;28;20042;-65
2022/10/25 08:54:47;;;;;;;13.13;4.65;;;;;;;13.73;100.00;101464.84;5071171;28;20444;-65
2022/10/25 08:57:28;;;;;;;12.80;5.47;;;;;;;13.81;100.00;101477.25;5089265;28;20031;-65
2022/10/25 08:59:57;;;;;;;9.73;4.70;;;;;;;13.81;100.00;101475.41;5089281;28;20020;-65
2022/10/25 09:02:45;;;;;;;8.15;4.28;;;;;;;13.90;100.00;101477.88;5088826;28;20058;-65
2022/10/25 09:05:37;;;;;;;9.52;4.47;;;;;;;13.93;100.00;101483.66;5089130;28;20039;-65
2022/10/25 09:08:22;;;;;;;12.77;4.28;;;;;;;13.93;100.00;101482.84;5089246;28;20483;-65
2022/10/25 09:11:06;;;;;;;8.60;3.80;;;;;;;14.00;100.00;101489.03;5071381;28;20119;-65
2022/10/25 09:14:04;;;;;;;22.05;5.55;;;;;;;14.01;100.00;101488.00;5088673;28;20023;-65
2022/10/25 09:16:32;;;;;;;14.05;4.03;;;;;;;14.02;100.00;101490.50;5075534;28;20122;-66
2022/10/25 09:18:58;;;;;;;10.93;4.60;;;;;;;14.15;100.00;101496.91;5089116;28;20070;-65
2022/10/25 09:21:47;;;;;;;8.00;3.92;;;;;;;14.27;100.00;101495.25;5088900;28;20063;-65
2022/10/25 09:24:41;;;;;;;11.43;4.97;;;;;;;14.44;100.00;101501.88;5069605;28;20055;-65
2022/10/25 09:27:13;;;;;;;9.63;4.07;;;;;;;14.50;100.00;101502.91;5047626;28;20041;-67
2022/10/25 09:29:42;;;;;;;12.15;4.68;;;;;;;14.52;100.00;101510.78;5069519;28;20042;-65
2022/10/25 09:32:31;;;;;;;10.60;4.60;;;;;;;14.50;100.00;101507.47;5069500;28;20032;-66
2022/10/25 09:35:00;;;;;;;9.60;3.95;;;;;;;14.33;100.00;101507.88;5069048;28;20021;-65
2022/10/25 09:37:38;;;;;;;9.38;4.45;;;;;;;14.36;100.00;101514.69;5069085;28;20024;-65
2022/10/25 09:40:12;;;;;;;15.63;4.97;;;;;;;14.31;100.00;101511.78;5071452;28;20032;-65
2022/10/25 09:42:51;;;;;;;9.88;3.92;;;;;;;14.34;100.00;101517.56;5073820;28;20016;-65
2022/10/25 09:45:27;;;;;;;13.90;5.40;;;;;;;14.36;100.00;101518.19;5073860;28;20093;-65
2022/10/25 09:48:00;;;;;;;10.02;4.30;;;;;;;14.41;100.00;101517.59;5073529;28;20044;-66
2022/10/25 09:50:34;;;;;;;13.05;3.53;;;;;;;14.44;100.00;101515.31;5073584;28;20028;-64
2022/10/25 09:53:03;;;;;;;11.85;4.68;;;;;;;14.48;100.00;101510.34;5073322;28;20059;-66
2022/10/25 09:55:34;;;;;;;10.52;3.92;;;;;;;14.47;100.00;101520.25;5073406;28;20485;-66
2022/10/25 09:58:00;;;;;;;8.85;3.78;;;;;;;14.47;100.00;101520.25;5073438;28;20264;-66
2022/10/25 10:00:26;;;;;;;7.13;3.40;;;;;;;14.38;100.00;101501.88;5073480;28;20028;-66
2022/10/25 10:02:52;;;;;;;15.43;4.78;;;;;;;14.45;100.00;101530.38;5073246;28;20055;-65
2022/10/25 10:05:19;;;;;;;7.43;2.88;;;;;;;14.44;100.00;101530.59;5073149;28;20067;-65
2022/10/25 10:07:47;;;;;;;10.15;3.92;;;;;;;14.38;100.00;101524.19;5073218;28;20033;-65
2022/10/25 10:10:17;;;;;;;9.40;4.18;;;;;;;14.43;100.00;101535.09;5073173;28;20028;-66
2022/10/25 10:12:58;;;;;;;10.05;4.20;;;;;;;14.43;100.00;101540.47;5073102;28;20028;-66
2022/10/25 10:15:30;;;;;;;5.88;3.70;;;;;;;14.44;100.00;101528.72;5072603;28;20031;-66
2022/10/25 10:18:18;;;;;;;9.35;4.30;;;;;;;14.50;100.00;101537.81;5072970;28;20024;-66
2022/10/25 10:20:58;;;;;;;9.20;3.97;;;;;;;14.52;100.00;101537.63;5072995;28;20036;-65
2022/10/25 10:23:29;;;;;;;9.00;3.85;;;;;;;14.57;100.00;101546.72;5072532;28;20049;-66
2022/10/25 10:25:55;;;;;;;9.55;3.53;;;;;;;14.64;100.00;101538.66;5072964;28;20141;-66
2022/10/25 10:28:20;;;;;;;8.35;3.60;;;;;;;14.66;100.00;101540.13;5072679;28;20060;-66
2022/10/25 10:30:55;;;;;;;6.60;2.83;;;;;;;14.74;100.00;101541.75;5072938;28;20025;-73
2022/10/25 10:33:21;;;;;;;15.23;4.60;;;;;;;14.76;100.00;101542.38;5072350;28;20036;-73
2022/10/25 10:35:47;;;;;;;10.82;3.50;;;;;;;14.78;100.00;101550.25;5072786;28;20494;-73
2022/10/25 10:38:19;;;;;;;9.23;3.35;;;;;;;14.83;100.00;101545.91;5072651;28;20028;-72
2022/10/25 10:40:44;;;;;;;17.90;4.05;;;;;;;14.87;100.00;101535.56;5072477;28;20016;-73
2022/10/25 10:43:31;;;;;;;6.03;3.20;;;;;;;14.95;100.00;101539.91;5072432;28;20365;-72
2022/10/25 10:46:18;;;;;;;8.48;4.07;;;;;;;15.05;100.00;101553.72;5072601;28;20028;-73
2022/10/25 10:48:51;;;;;;;14.40;4.13;;;;;;;15.03;100.00;101556.59;5073865;28;20040;-73
2022/10/25 10:51:20;;;;;;;11.38;3.60;;;;;;;14.99;99.13;101539.28;5072773;28;20032;-73
2022/10/25 10:53:45;;;;;;;11.13;4.15;;;;;;;15.01;100.00;101555.16;5091740;28;20032;-73
2022/10/25 10:56:20;;;;;;;6.35;3.92;;;;;;;15.03;100.00;101564.66;5091675;28;20436;-73
2022/10/25 10:58:49;;;;;;;7.80;3.60;;;;;;;15.03;100.00;101556.59;5091602;28;20649;-73
2022/10/25 11:01:27;;;;;;;12.55;3.95;;;;;;;15.07;100.00;101559.72;5082189;28;20024;-73
2022/10/25 11:03:56;;;;;;;8.45;3.28;;;;;;;15.13;99.59;101559.69;5072136;28;20055;-73
2022/10/25 11:06:31;;;;;;;12.60;3.30;;;;;;;15.22;98.10;101557.63;5071961;28;20024;-73
2022/10/25 11:09:08;;;;;;;8.45;3.15;;;;;;;15.29;98.98;101558.41;5071697;28;20349;-73
2022/10/25 11:11:33;;;;;;;9.05;3.63;;;;;;;15.30;97.58;101560.09;5054082;28;20502;-72
2022/10/25 11:14:00;;;;;;;9.27;3.55;;;;;;;15.34;97.58;101564.00;5071992;28;20033;-72
2022/10/25 11:16:28;;;;;;;6.97;3.03;;;;;;;15.35;97.39;101564.81;5071913;28;20032;-72
2022/10/25 11:19:13;;;;;;;7.15;3.00;;;;;;;15.39;97.46;101558.00;5071629;28;20025;-72
2022/10/25 11:21:57;;;;;;;13.13;3.85;;;;;;;15.49;97.00;101553.00;5071632;28;20074;-70
2022/10/25 11:24:40;;;;;;;6.70;2.55;;;;;;;15.57;95.89;101560.00;5076165;28;20105;-72
2022/10/25 11:27:21;;;;;;;9.05;2.70;;;;;;;15.60;96.43;101556.06;5079148;28;20024;-72
2022/10/25 11:29:55;;;;;;;5.95;2.58;;;;;;;15.61;95.05;101560.41;5078651;28;20035;-73
2022/10/25 11:32:56;;;;;;;12.35;4.45;;;;;;;15.57;95.35;101560.00;5078316;28;20171;-73
2022/10/25 11:35:37;;;;;;;10.65;3.85;;;;;;;15.60;95.20;101564.13;4973118;28;20515;-73
2022/10/25 11:38:27;;;;;;;10.13;2.55;;;;;;;15.58;95.33;101567.03;5067106;28;20110;-72
2022/10/25 11:41:00;;;;;;;11.70;2.63;;;;;;;15.53;94.98;101553.38;5072767;28;20025;-65